sensor_id;sensor_type;location;lat;lon;timestamp;temperature;humidity
9544;DHT22;30418;51.45933468;7.33152330;2022-07-23T00:02:21;22.40;58.90
9544;DHT22;30418;51.45933468;7.33152330;2022-07-23T00:04:49;22.40;59.20
9544;DHT22;30418;51.45933468;7.33152330;2022-07-23T00:07:18;22.40;59.40
9544;DHT22;30418;51.45933468;7.33152330;2022-07-23T00:09:47;22.30;59.30
9544;DHT22;30418;51.45933468;7.33152330;2022-07-23T00:12:16;22.30;59.30
9544;DHT22;30418;51.45933468;7.33152330;2022-07-23T00:14:44;22.30;59.50
9544;DHT22;30418;51.45933468;7.33152330;2022-07-23T00:17:13;22.30;59.70
9544;DHT22;30418;51.45933468;7.33152330;2022-07-23T00:19:43;22.30;59.90
9544;DHT22;30418;51.45933468;7.33152330;2022-07-23T00:22:11;22.30;59.90
9544;DHT22;30418;51.45933468;7.33152330;2022-07-23T00:24:40;22.30;59.90
9544;DHT22;30418;51.45933468;7.33152330;2022-07-23T00:27:09;22.30;59.90
9544;DHT22;30418;51.45933468;7.33152330;2022-07-23T00:29:37;22.30;60.00
9544;DHT22;30418;51.45933468;7.33152330;2022-07-23T00:32:06;22.30;60.10
9544;DHT22;30418;51.45933468;7.33152330;2022-07-23T00:34:34;22.30;60.10
9544;DHT22;30418;51.45933468;7.33152330;2022-07-23T00:37:04;22.30;60.20
9544;DHT22;30418;51.45933468;7.33152330;2022-07-23T00:39:33;22.30;60.30
9544;DHT22;30418;51.45933468;7.33152330;2022-07-23T00:42:02;22.30;60.20
9544;DHT22;30418;51.45933468;7.33152330;2022-07-23T00:44:31;22.30;60.10
9544;DHT22;30418;51.45933468;7.33152330;2022-07-23T00:47:00;22.30;60.40
9544;DHT22;30418;51.45933468;7.33152330;2022-07-23T00:49:29;22.30;60.40
9544;DHT22;30418;51.45933468;7.33152330;2022-07-23T00:52:01;22.30;60.40
9544;DHT22;30418;51.45933468;7.33152330;2022-07-23T00:54:31;22.30;60.50
9544;DHT22;30418;51.45933468;7.33152330;2022-07-23T00:57:00;22.30;60.20
9544;DHT22;30418;51.45933468;7.33152330;2022-07-23T00:59:29;22.30;60.20
9544;DHT22;30418;51.45933468;7.33152330;2022-07-23T01:01:57;22.20;60.20
9544;DHT22;30418;51.45933468;7.33152330;2022-07-23T01:04:26;22.20;60.30
9544;DHT22;30418;51.45933468;7.33152330;2022-07-23T01:06:55;22.20;60.20
9544;DHT22;30418;51.45933468;7.33152330;2022-07-23T01:09:24;22.10;60.20
9544;DHT22;30418;51.45933468;7.33152330;2022-07-23T01:11:55;22.20;60.50
9544;DHT22;30418;51.45933468;7.33152330;2022-07-23T01:14:25;22.10;60.50
9544;DHT22;30418;51.45933468;7.33152330;2022-07-23T01:16:53;22.10;60.40
9544;DHT22;30418;51.45933468;7.33152330;2022-07-23T01:19:22;22.10;60.50
9544;DHT22;30418;51.45933468;7.33152330;2022-07-23T01:21:51;22.10;60.60
9544;DHT22;30418;51.45933468;7.33152330;2022-07-23T01:24:23;22.10;60.70
9544;DHT22;30418;51.45933468;7.33152330;2022-07-23T01:26:58;22.10;60.80
9544;DHT22;30418;51.45933468;7.33152330;2022-07-23T01:29:26;22.10;60.80
9544;DHT22;30418;51.45933468;7.33152330;2022-07-23T01:31:58;22.10;60.80
9544;DHT22;30418;51.45933468;7.33152330;2022-07-23T01:34:27;22.10;60.80
9544;DHT22;30418;51.45933468;7.33152330;2022-07-23T01:36:55;22.10;60.90
9544;DHT22;30418;51.45933468;7.33152330;2022-07-23T01:39:25;22.10;61.00
9544;DHT22;30418;51.45933468;7.33152330;2022-07-23T01:41:54;22.10;61.10
9544;DHT22;30418;51.45933468;7.33152330;2022-07-23T01:44:24;22.10;61.00
9544;DHT22;30418;51.45933468;7.33152330;2022-07-23T01:46:52;22.10;61.00
9544;DHT22;30418;51.45933468;7.33152330;2022-07-23T01:49:21;22.00;61.00
9544;DHT22;30418;51.45933468;7.33152330;2022-07-23T01:51:50;22.00;61.10
9544;DHT22;30418;51.45933468;7.33152330;2022-07-23T01:54:41;22.00;61.20
9544;DHT22;30418;51.45933468;7.33152330;2022-07-23T01:57:10;22.00;61.40
9544;DHT22;30418;51.45933468;7.33152330;2022-07-23T01:59:39;22.00;61.40
9544;DHT22;30418;51.45933468;7.33152330;2022-07-23T02:02:09;22.00;61.50
9544;DHT22;30418;51.45933468;7.33152330;2022-07-23T02:04:37;22.00;61.60
9544;DHT22;30418;51.45933468;7.33152330;2022-07-23T02:07:06;22.00;61.60
9544;DHT22;30418;51.45933468;7.33152330;2022-07-23T02:09:35;22.00;61.70
9544;DHT22;30418;51.45933468;7.33152330;2022-07-23T02:12:05;22.00;61.60
9544;DHT22;30418;51.45933468;7.33152330;2022-07-23T02:14:34;22.00;61.80
9544;DHT22;30418;51.45933468;7.33152330;2022-07-23T02:17:05;22.00;61.70
9544;DHT22;30418;51.45933468;7.33152330;2022-07-23T02:19:35;22.00;61.50
9544;DHT22;30418;51.45933468;7.33152330;2022-07-23T02:22:03;22.00;61.60
9544;DHT22;30418;51.45933468;7.33152330;2022-07-23T02:24:32;22.00;61.60
9544;DHT22;30418;51.45933468;7.33152330;2022-07-23T02:27:01;22.00;61.60
9544;DHT22;30418;51.45933468;7.33152330;2022-07-23T02:29:31;22.00;61.70
9544;DHT22;30418;51.45933468;7.33152330;2022-07-23T02:31:59;22.00;61.80
9544;DHT22;30418;51.45933468;7.33152330;2022-07-23T02:34:28;22.00;62.00
9544;DHT22;30418;51.45933468;7.33152330;2022-07-23T02:36:57;22.00;62.00
9544;DHT22;30418;51.45933468;7.33152330;2022-07-23T02:39:28;22.00;62.00
9544;DHT22;30418;51.45933468;7.33152330;2022-07-23T02:41:57;21.90;61.90
9544;DHT22;30418;51.45933468;7.33152330;2022-07-23T02:44:25;21.90;61.80
9544;DHT22;30418;51.45933468;7.33152330;2022-07-23T02:46:56;21.90;61.90
9544;DHT22;30418;51.45933468;7.33152330;2022-07-23T02:49:24;21.90;61.90
9544;DHT22;30418;51.45933468;7.33152330;2022-07-23T02:51:53;21.90;61.90
9544;DHT22;30418;51.45933468;7.33152330;2022-07-23T02:54:22;21.90;61.90
9544;DHT22;30418;51.45933468;7.33152330;2022-07-23T02:56:52;21.90;61.90
9544;DHT22;30418;51.45933468;7.33152330;2022-07-23T02:59:20;21.80;61.70
9544;DHT22;30418;51.45933468;7.33152330;2022-07-23T03:01:49;21.80;61.70
9544;DHT22;30418;51.45933468;7.33152330;2022-07-23T03:04:20;21.80;61.70
9544;DHT22;30418;51.45933468;7.33152330;2022-07-23T03:06:48;21.70;61.70
9544;DHT22;30418;51.45933468;7.33152330;2022-07-23T03:09:18;21.70;61.70
9544;DHT22;30418;51.45933468;7.33152330;2022-07-23T03:11:46;21.60;61.60
9544;DHT22;30418;51.45933468;7.33152330;2022-07-23T03:14:15;21.60;61.60
9544;DHT22;30418;51.45933468;7.33152330;2022-07-23T03:16:43;21.60;61.70
9544;DHT22;30418;51.45933468;7.33152330;2022-07-23T03:19:12;21.50;61.70
9544;DHT22;30418;51.45933468;7.33152330;2022-07-23T03:21:42;21.60;61.90
9544;DHT22;30418;51.45933468;7.33152330;2022-07-23T03:24:12;21.50;61.90
9544;DHT22;30418;51.45933468;7.33152330;2022-07-23T03:26:40;21.50;62.00
9544;DHT22;30418;51.45933468;7.33152330;2022-07-23T03:29:09;21.50;62.00
9544;DHT22;30418;51.45933468;7.33152330;2022-07-23T03:31:38;21.50;61.90
9544;DHT22;30418;51.45933468;7.33152330;2022-07-23T03:34:07;21.50;61.90
9544;DHT22;30418;51.45933468;7.33152330;2022-07-23T03:36:36;21.50;62.10
9544;DHT22;30418;51.45933468;7.33152330;2022-07-23T03:39:07;21.50;62.20
9544;DHT22;30418;51.45933468;7.33152330;2022-07-23T03:41:40;21.50;62.40
9544;DHT22;30418;51.45933468;7.33152330;2022-07-23T03:44:10;21.50;62.20
9544;DHT22;30418;51.45933468;7.33152330;2022-07-23T03:46:38;21.50;62.40
9544;DHT22;30418;51.45933468;7.33152330;2022-07-23T03:49:07;21.50;62.10
9544;DHT22;30418;51.45933468;7.33152330;2022-07-23T03:51:36;21.50;62.10
9544;DHT22;30418;51.45933468;7.33152330;2022-07-23T03:54:04;21.40;62.00
9544;DHT22;30418;51.45933468;7.33152330;2022-07-23T03:56:34;21.40;62.10
9544;DHT22;30418;51.45933468;7.33152330;2022-07-23T03:59:03;21.40;62.30
9544;DHT22;30418;51.45933468;7.33152330;2022-07-23T04:01:32;21.40;62.30
9544;DHT22;30418;51.45933468;7.33152330;2022-07-23T04:04:01;21.40;62.40
9544;DHT22;30418;51.45933468;7.33152330;2022-07-23T04:06:31;21.40;62.40
9544;DHT22;30418;51.45933468;7.33152330;2022-07-23T04:09:00;21.30;62.20
9544;DHT22;30418;51.45933468;7.33152330;2022-07-23T04:11:30;21.30;62.20
9544;DHT22;30418;51.45933468;7.33152330;2022-07-23T04:14:02;21.30;62.40
9544;DHT22;30418;51.45933468;7.33152330;2022-07-23T04:16:31;21.20;62.30
9544;DHT22;30418;51.45933468;7.33152330;2022-07-23T04:19:00;21.20;62.40
9544;DHT22;30418;51.45933468;7.33152330;2022-07-23T04:21:39;21.20;62.60
9544;DHT22;30418;51.45933468;7.33152330;2022-07-23T04:24:07;21.20;62.70
9544;DHT22;30418;51.45933468;7.33152330;2022-07-23T04:26:36;21.10;62.80
9544;DHT22;30418;51.45933468;7.33152330;2022-07-23T04:29:06;21.10;62.80
9544;DHT22;30418;51.45933468;7.33152330;2022-07-23T04:31:35;21.10;63.10
9544;DHT22;30418;51.45933468;7.33152330;2022-07-23T04:34:05;21.10;63.10
9544;DHT22;30418;51.45933468;7.33152330;2022-07-23T04:36:34;21.10;63.10
9544;DHT22;30418;51.45933468;7.33152330;2022-07-23T04:39:03;21.00;63.00
9544;DHT22;30418;51.45933468;7.33152330;2022-07-23T04:41:32;21.00;63.10
9544;DHT22;30418;51.45933468;7.33152330;2022-07-23T04:44:02;21.00;63.20
9544;DHT22;30418;51.45933468;7.33152330;2022-07-23T04:46:32;21.00;63.30
9544;DHT22;30418;51.45933468;7.33152330;2022-07-23T04:49:01;20.90;63.30
9544;DHT22;30418;51.45933468;7.33152330;2022-07-23T04:51:32;20.90;63.40
9544;DHT22;30418;51.45933468;7.33152330;2022-07-23T04:54:01;20.90;63.60
9544;DHT22;30418;51.45933468;7.33152330;2022-07-23T04:56:30;20.90;63.80
9544;DHT22;30418;51.45933468;7.33152330;2022-07-23T04:58:58;20.90;63.80
9544;DHT22;30418;51.45933468;7.33152330;2022-07-23T05:01:28;20.90;64.00
9544;DHT22;30418;51.45933468;7.33152330;2022-07-23T05:03:58;21.00;64.10
9544;DHT22;30418;51.45933468;7.33152330;2022-07-23T05:06:31;21.00;64.10
9544;DHT22;30418;51.45933468;7.33152330;2022-07-23T05:09:00;21.00;64.00
9544;DHT22;30418;51.45933468;7.33152330;2022-07-23T05:11:29;20.90;63.80
9544;DHT22;30418;51.45933468;7.33152330;2022-07-23T05:13:58;21.00;63.60
9544;DHT22;30418;51.45933468;7.33152330;2022-07-23T05:16:28;21.00;63.60
9544;DHT22;30418;51.45933468;7.33152330;2022-07-23T05:19:03;21.00;63.60
9544;DHT22;30418;51.45933468;7.33152330;2022-07-23T05:21:34;20.90;63.60
9544;DHT22;30418;51.45933468;7.33152330;2022-07-23T05:24:03;21.00;63.70
9544;DHT22;30418;51.45933468;7.33152330;2022-07-23T05:26:33;21.00;63.70
9544;DHT22;30418;51.45933468;7.33152330;2022-07-23T05:29:02;20.90;63.50
9544;DHT22;30418;51.45933468;7.33152330;2022-07-23T05:31:31;20.90;63.50
9544;DHT22;30418;51.45933468;7.33152330;2022-07-23T05:34:00;20.90;63.60
9544;DHT22;30418;51.45933468;7.33152330;2022-07-23T05:36:31;20.90;63.90
9544;DHT22;30418;51.45933468;7.33152330;2022-07-23T05:39:01;20.90;64.10
9544;DHT22;30418;51.45933468;7.33152330;2022-07-23T05:41:33;21.00;64.20
9544;DHT22;30418;51.45933468;7.33152330;2022-07-23T05:44:03;21.00;64.20
9544;DHT22;30418;51.45933468;7.33152330;2022-07-23T05:46:36;21.00;64.20
9544;DHT22;30418;51.45933468;7.33152330;2022-07-23T05:49:08;21.10;64.30
9544;DHT22;30418;51.45933468;7.33152330;2022-07-23T05:52:04;21.10;64.30
9544;DHT22;30418;51.45933468;7.33152330;2022-07-23T05:54:52;21.20;64.70
9544;DHT22;30418;51.45933468;7.33152330;2022-07-23T05:57:21;21.20;64.40
9544;DHT22;30418;51.45933468;7.33152330;2022-07-23T05:59:52;21.20;64.40
9544;DHT22;30418;51.45933468;7.33152330;2022-07-23T06:02:20;21.30;64.50
9544;DHT22;30418;51.45933468;7.33152330;2022-07-23T06:04:49;21.20;64.40
9544;DHT22;30418;51.45933468;7.33152330;2022-07-23T06:07:28;21.30;64.50
9544;DHT22;30418;51.45933468;7.33152330;2022-07-23T06:09:56;21.40;64.60
9544;DHT22;30418;51.45933468;7.33152330;2022-07-23T06:12:25;21.40;64.60
9544;DHT22;30418;51.45933468;7.33152330;2022-07-23T06:14:54;21.40;64.50
9544;DHT22;30418;51.45933468;7.33152330;2022-07-23T06:17:24;21.40;64.30
9544;DHT22;30418;51.45933468;7.33152330;2022-07-23T06:19:52;21.40;64.20
9544;DHT22;30418;51.45933468;7.33152330;2022-07-23T06:22:21;21.50;64.40
9544;DHT22;30418;51.45933468;7.33152330;2022-07-23T06:24:51;21.50;64.60
9544;DHT22;30418;51.45933468;7.33152330;2022-07-23T06:27:21;21.50;64.70
9544;DHT22;30418;51.45933468;7.33152330;2022-07-23T06:29:52;21.50;64.60
9544;DHT22;30418;51.45933468;7.33152330;2022-07-23T06:32:21;21.50;64.70
9544;DHT22;30418;51.45933468;7.33152330;2022-07-23T06:34:49;21.60;64.80
9544;DHT22;30418;51.45933468;7.33152330;2022-07-23T06:37:20;21.60;64.80
9544;DHT22;30418;51.45933468;7.33152330;2022-07-23T06:39:50;21.70;65.00
9544;DHT22;30418;51.45933468;7.33152330;2022-07-23T06:42:19;21.60;64.80
9544;DHT22;30418;51.45933468;7.33152330;2022-07-23T06:44:56;21.70;65.00
9544;DHT22;30418;51.45933468;7.33152330;2022-07-23T06:47:25;21.70;65.00
9544;DHT22;30418;51.45933468;7.33152330;2022-07-23T06:49:53;21.80;65.20
9544;DHT22;30418;51.45933468;7.33152330;2022-07-23T06:52:24;21.80;65.30
9544;DHT22;30418;51.45933468;7.33152330;2022-07-23T06:54:54;21.80;65.10
9544;DHT22;30418;51.45933468;7.33152330;2022-07-23T06:57:23;21.90;65.20
9544;DHT22;30418;51.45933468;7.33152330;2022-07-23T06:59:52;21.90;65.20
9544;DHT22;30418;51.45933468;7.33152330;2022-07-23T07:02:22;21.90;65.00
9544;DHT22;30418;51.45933468;7.33152330;2022-07-23T07:04:50;22.00;65.00
9544;DHT22;30418;51.45933468;7.33152330;2022-07-23T07:07:20;22.00;65.00
9544;DHT22;30418;51.45933468;7.33152330;2022-07-23T07:09:48;22.00;64.90
9544;DHT22;30418;51.45933468;7.33152330;2022-07-23T07:12:18;22.00;65.00
9544;DHT22;30418;51.45933468;7.33152330;2022-07-23T07:14:47;22.00;65.20
9544;DHT22;30418;51.45933468;7.33152330;2022-07-23T07:17:16;22.00;65.20
9544;DHT22;30418;51.45933468;7.33152330;2022-07-23T07:19:44;22.00;65.30
9544;DHT22;30418;51.45933468;7.33152330;2022-07-23T07:22:13;22.00;65.30
9544;DHT22;30418;51.45933468;7.33152330;2022-07-23T07:24:41;22.10;65.40
9544;DHT22;30418;51.45933468;7.33152330;2022-07-23T07:27:10;22.10;65.20
9544;DHT22;30418;51.45933468;7.33152330;2022-07-23T07:29:40;22.10;65.20
9544;DHT22;30418;51.45933468;7.33152330;2022-07-23T07:32:09;22.10;65.30
9544;DHT22;30418;51.45933468;7.33152330;2022-07-23T07:34:37;22.20;65.50
9544;DHT22;30418;51.45933468;7.33152330;2022-07-23T07:37:06;22.20;65.20
9544;DHT22;30418;51.45933468;7.33152330;2022-07-23T07:39:35;22.20;65.00
9544;DHT22;30418;51.45933468;7.33152330;2022-07-23T07:42:03;22.20;64.80
9544;DHT22;30418;51.45933468;7.33152330;2022-07-23T07:44:32;22.20;65.00
9544;DHT22;30418;51.45933468;7.33152330;2022-07-23T07:47:02;22.20;64.80
9544;DHT22;30418;51.45933468;7.33152330;2022-07-23T07:49:31;22.30;65.00
9544;DHT22;30418;51.45933468;7.33152330;2022-07-23T07:52:02;22.30;65.10
9544;DHT22;30418;51.45933468;7.33152330;2022-07-23T07:54:31;22.30;65.10
9544;DHT22;30418;51.45933468;7.33152330;2022-07-23T07:57:00;22.30;65.10
9544;DHT22;30418;51.45933468;7.33152330;2022-07-23T07:59:34;22.30;64.90
9544;DHT22;30418;51.45933468;7.33152330;2022-07-23T08:02:04;22.40;65.10
9544;DHT22;30418;51.45933468;7.33152330;2022-07-23T08:04:33;22.40;65.30
9544;DHT22;30418;51.45933468;7.33152330;2022-07-23T08:07:01;22.40;65.10
9544;DHT22;30418;51.45933468;7.33152330;2022-07-23T08:09:30;22.50;64.80
9544;DHT22;30418;51.45933468;7.33152330;2022-07-23T08:11:59;22.50;64.40
9544;DHT22;30418;51.45933468;7.33152330;2022-07-23T08:14:27;22.60;64.60
9544;DHT22;30418;51.45933468;7.33152330;2022-07-23T08:16:56;22.60;64.50
9544;DHT22;30418;51.45933468;7.33152330;2022-07-23T08:19:42;22.60;64.40
9544;DHT22;30418;51.45933468;7.33152330;2022-07-23T08:22:12;22.70;64.50
9544;DHT22;30418;51.45933468;7.33152330;2022-07-23T08:24:41;22.70;64.20
9544;DHT22;30418;51.45933468;7.33152330;2022-07-23T08:27:09;22.70;64.10
9544;DHT22;30418;51.45933468;7.33152330;2022-07-23T08:29:38;22.70;63.90
9544;DHT22;30418;51.45933468;7.33152330;2022-07-23T08:32:06;22.70;63.60
9544;DHT22;30418;51.45933468;7.33152330;2022-07-23T08:34:56;22.70;63.60
9544;DHT22;30418;51.45933468;7.33152330;2022-07-23T08:37:25;22.80;64.00
9544;DHT22;30418;51.45933468;7.33152330;2022-07-23T08:39:54;22.80;64.30
9544;DHT22;30418;51.45933468;7.33152330;2022-07-23T08:42:23;22.90;64.90
9544;DHT22;30418;51.45933468;7.33152330;2022-07-23T08:44:52;22.90;64.30
9544;DHT22;30418;51.45933468;7.33152330;2022-07-23T08:47:21;23.00;64.00
9544;DHT22;30418;51.45933468;7.33152330;2022-07-23T08:49:51;23.00;63.70
9544;DHT22;30418;51.45933468;7.33152330;2022-07-23T08:52:22;23.10;63.20
9544;DHT22;30418;51.45933468;7.33152330;2022-07-23T08:54:54;23.10;63.20
9544;DHT22;30418;51.45933468;7.33152330;2022-07-23T08:57:23;23.20;63.30
9544;DHT22;30418;51.45933468;7.33152330;2022-07-23T08:59:51;23.20;63.10
9544;DHT22;30418;51.45933468;7.33152330;2022-07-23T09:02:20;23.30;63.00
9544;DHT22;30418;51.45933468;7.33152330;2022-07-23T09:04:49;23.30;62.50
9544;DHT22;30418;51.45933468;7.33152330;2022-07-23T09:07:18;23.30;62.20
9544;DHT22;30418;51.45933468;7.33152330;2022-07-23T09:10:05;23.40;62.00
9544;DHT22;30418;51.45933468;7.33152330;2022-07-23T09:12:35;23.40;61.80
9544;DHT22;30418;51.45933468;7.33152330;2022-07-23T09:15:06;23.40;62.30
9544;DHT22;30418;51.45933468;7.33152330;2022-07-23T09:17:43;23.50;62.40
9544;DHT22;30418;51.45933468;7.33152330;2022-07-23T09:20:13;23.60;62.00
9544;DHT22;30418;51.45933468;7.33152330;2022-07-23T09:22:45;23.60;62.20
9544;DHT22;30418;51.45933468;7.33152330;2022-07-23T09:25:17;23.70;61.30
9544;DHT22;30418;51.45933468;7.33152330;2022-07-23T09:27:49;23.70;60.60
9544;DHT22;30418;51.45933468;7.33152330;2022-07-23T09:30:23;23.80;60.70
9544;DHT22;30418;51.45933468;7.33152330;2022-07-23T09:33:05;23.80;60.80
9544;DHT22;30418;51.45933468;7.33152330;2022-07-23T09:35:46;23.80;60.70
9544;DHT22;30418;51.45933468;7.33152330;2022-07-23T09:38:19;24.00;60.50
9544;DHT22;30418;51.45933468;7.33152330;2022-07-23T09:41:05;24.00;60.20
9544;DHT22;30418;51.45933468;7.33152330;2022-07-23T09:43:35;24.00;59.70
9544;DHT22;30418;51.45933468;7.33152330;2022-07-23T09:46:20;24.00;59.90
9544;DHT22;30418;51.45933468;7.33152330;2022-07-23T09:48:50;24.10;59.40
9544;DHT22;30418;51.45933468;7.33152330;2022-07-23T09:51:20;24.10;59.80
9544;DHT22;30418;51.45933468;7.33152330;2022-07-23T09:53:56;24.10;60.30
9544;DHT22;30418;51.45933468;7.33152330;2022-07-23T09:56:27;24.10;59.50
9544;DHT22;30418;51.45933468;7.33152330;2022-07-23T09:58:57;24.10;59.00
9544;DHT22;30418;51.45933468;7.33152330;2022-07-23T10:01:33;24.10;58.90
9544;DHT22;30418;51.45933468;7.33152330;2022-07-23T10:04:02;24.10;59.00
9544;DHT22;30418;51.45933468;7.33152330;2022-07-23T10:06:53;24.20;59.00
9544;DHT22;30418;51.45933468;7.33152330;2022-07-23T10:09:42;24.20;59.40
9544;DHT22;30418;51.45933468;7.33152330;2022-07-23T10:12:32;24.30;59.70
9544;DHT22;30418;51.45933468;7.33152330;2022-07-23T10:15:17;24.40;59.70
9544;DHT22;30418;51.45933468;7.33152330;2022-07-23T10:17:45;24.50;59.00
9544;DHT22;30418;51.45933468;7.33152330;2022-07-23T10:20:14;24.50;58.70
9544;DHT22;30418;51.45933468;7.33152330;2022-07-23T10:22:50;24.60;58.80
9544;DHT22;30418;51.45933468;7.33152330;2022-07-23T10:25:27;24.70;58.60
9544;DHT22;30418;51.45933468;7.33152330;2022-07-23T10:28:15;24.80;58.60
9544;DHT22;30418;51.45933468;7.33152330;2022-07-23T10:31:04;24.80;57.80
9544;DHT22;30418;51.45933468;7.33152330;2022-07-23T10:33:45;24.90;58.40
9544;DHT22;30418;51.45933468;7.33152330;2022-07-23T10:36:27;24.90;58.20
9544;DHT22;30418;51.45933468;7.33152330;2022-07-23T10:39:05;25.00;58.30
9544;DHT22;30418;51.45933468;7.33152330;2022-07-23T10:41:36;25.10;58.10
9544;DHT22;30418;51.45933468;7.33152330;2022-07-23T10:44:10;25.20;58.30
9544;DHT22;30418;51.45933468;7.33152330;2022-07-23T10:46:55;25.20;57.80
9544;DHT22;30418;51.45933468;7.33152330;2022-07-23T10:49:42;25.30;56.60
9544;DHT22;30418;51.45933468;7.33152330;2022-07-23T10:52:22;25.40;57.00
9544;DHT22;30418;51.45933468;7.33152330;2022-07-23T10:54:54;25.40;56.10
9544;DHT22;30418;51.45933468;7.33152330;2022-07-23T10:57:26;25.40;56.40
9544;DHT22;30418;51.45933468;7.33152330;2022-07-23T11:00:16;25.40;56.10
9544;DHT22;30418;51.45933468;7.33152330;2022-07-23T11:02:53;25.40;55.90
9544;DHT22;30418;51.45933468;7.33152330;2022-07-23T11:05:25;25.40;56.60
9544;DHT22;30418;51.45933468;7.33152330;2022-07-23T11:08:17;25.50;56.70
9544;DHT22;30418;51.45933468;7.33152330;2022-07-23T11:10:50;25.60;55.70
9544;DHT22;30418;51.45933468;7.33152330;2022-07-23T11:13:47;25.60;56.00
9544;DHT22;30418;51.45933468;7.33152330;2022-07-23T11:16:23;25.60;55.30
9544;DHT22;30418;51.45933468;7.33152330;2022-07-23T11:19:04;25.70;55.30
9544;DHT22;30418;51.45933468;7.33152330;2022-07-23T11:21:50;25.70;55.40
9544;DHT22;30418;51.45933468;7.33152330;2022-07-23T11:24:21;25.70;55.40
9544;DHT22;30418;51.45933468;7.33152330;2022-07-23T11:27:01;25.80;55.70
9544;DHT22;30418;51.45933468;7.33152330;2022-07-23T11:29:48;25.90;55.00
9544;DHT22;30418;51.45933468;7.33152330;2022-07-23T11:32:35;25.90;54.70
9544;DHT22;30418;51.45933468;7.33152330;2022-07-23T11:35:23;25.90;54.70
9544;DHT22;30418;51.45933468;7.33152330;2022-07-23T11:38:02;25.90;54.30
9544;DHT22;30418;51.45933468;7.33152330;2022-07-23T11:40:33;25.90;54.70
9544;DHT22;30418;51.45933468;7.33152330;2022-07-23T11:43:03;25.90;54.70
9544;DHT22;30418;51.45933468;7.33152330;2022-07-23T11:45:35;25.90;54.40
9544;DHT22;30418;51.45933468;7.33152330;2022-07-23T11:48:08;25.90;54.40
9544;DHT22;30418;51.45933468;7.33152330;2022-07-23T11:50:37;26.00;53.90
9544;DHT22;30418;51.45933468;7.33152330;2022-07-23T11:53:06;25.90;54.10
9544;DHT22;30418;51.45933468;7.33152330;2022-07-23T11:55:35;25.90;53.70
9544;DHT22;30418;51.45933468;7.33152330;2022-07-23T11:58:04;26.00;53.70
9544;DHT22;30418;51.45933468;7.33152330;2022-07-23T12:00:33;26.00;53.90
9544;DHT22;30418;51.45933468;7.33152330;2022-07-23T12:03:08;26.00;53.70
9544;DHT22;30418;51.45933468;7.33152330;2022-07-23T12:05:38;26.10;53.40
9544;DHT22;30418;51.45933468;7.33152330;2022-07-23T12:08:09;26.10;53.20
9544;DHT22;30418;51.45933468;7.33152330;2022-07-23T12:10:39;26.10;53.30
9544;DHT22;30418;51.45933468;7.33152330;2022-07-23T12:13:11;26.20;53.50
9544;DHT22;30418;51.45933468;7.33152330;2022-07-23T12:15:42;26.20;53.30
9544;DHT22;30418;51.45933468;7.33152330;2022-07-23T12:18:15;26.20;53.00
9544;DHT22;30418;51.45933468;7.33152330;2022-07-23T12:20:47;26.30;52.90
9544;DHT22;30418;51.45933468;7.33152330;2022-07-23T12:23:19;26.30;52.50
9544;DHT22;30418;51.45933468;7.33152330;2022-07-23T12:25:50;26.40;52.40
9544;DHT22;30418;51.45933468;7.33152330;2022-07-23T12:28:21;26.50;52.60
9544;DHT22;30418;51.45933468;7.33152330;2022-07-23T12:30:51;26.50;52.50
9544;DHT22;30418;51.45933468;7.33152330;2022-07-23T12:33:25;26.50;52.50
9544;DHT22;30418;51.45933468;7.33152330;2022-07-23T12:35:56;26.60;52.20
9544;DHT22;30418;51.45933468;7.33152330;2022-07-23T12:38:27;26.60;52.20
9544;DHT22;30418;51.45933468;7.33152330;2022-07-23T12:40:58;26.70;51.90
9544;DHT22;30418;51.45933468;7.33152330;2022-07-23T12:43:28;26.80;52.30
9544;DHT22;30418;51.45933468;7.33152330;2022-07-23T12:46:03;26.80;51.90
9544;DHT22;30418;51.45933468;7.33152330;2022-07-23T12:48:35;26.90;51.70
9544;DHT22;30418;51.45933468;7.33152330;2022-07-23T12:51:06;26.90;51.90
9544;DHT22;30418;51.45933468;7.33152330;2022-07-23T12:53:38;27.00;51.70
9544;DHT22;30418;51.45933468;7.33152330;2022-07-23T12:56:10;27.00;51.30
9544;DHT22;30418;51.45933468;7.33152330;2022-07-23T12:58:45;27.10;51.40
9544;DHT22;30418;51.45933468;7.33152330;2022-07-23T13:01:30;27.10;51.30
9544;DHT22;30418;51.45933468;7.33152330;2022-07-23T13:04:06;27.20;51.00
9544;DHT22;30418;51.45933468;7.33152330;2022-07-23T13:06:41;27.20;50.50
9544;DHT22;30418;51.45933468;7.33152330;2022-07-23T13:09:13;27.20;51.00
9544;DHT22;30418;51.45933468;7.33152330;2022-07-23T13:11:43;27.20;51.20
9544;DHT22;30418;51.45933468;7.33152330;2022-07-23T13:14:14;27.20;51.80
9544;DHT22;30418;51.45933468;7.33152330;2022-07-23T13:16:48;27.20;51.30
9544;DHT22;30418;51.45933468;7.33152330;2022-07-23T13:19:20;27.20;51.00
9544;DHT22;30418;51.45933468;7.33152330;2022-07-23T13:21:50;27.30;50.50
9544;DHT22;30418;51.45933468;7.33152330;2022-07-23T13:24:20;27.30;50.80
9544;DHT22;30418;51.45933468;7.33152330;2022-07-23T13:26:48;27.30;50.80
9544;DHT22;30418;51.45933468;7.33152330;2022-07-23T13:29:19;27.30;50.70
9544;DHT22;30418;51.45933468;7.33152330;2022-07-23T13:31:48;27.30;50.80
9544;DHT22;30418;51.45933468;7.33152330;2022-07-23T13:34:18;27.30;50.60
9544;DHT22;30418;51.45933468;7.33152330;2022-07-23T13:36:47;27.30;50.40
9544;DHT22;30418;51.45933468;7.33152330;2022-07-23T13:39:16;27.40;50.50
9544;DHT22;30418;51.45933468;7.33152330;2022-07-23T13:41:45;27.40;51.10
9544;DHT22;30418;51.45933468;7.33152330;2022-07-23T13:44:17;27.50;50.40
9544;DHT22;30418;51.45933468;7.33152330;2022-07-23T13:46:49;27.60;50.00
9544;DHT22;30418;51.45933468;7.33152330;2022-07-23T13:49:19;27.60;50.00
9544;DHT22;30418;51.45933468;7.33152330;2022-07-23T13:51:48;27.70;49.90
9544;DHT22;30418;51.45933468;7.33152330;2022-07-23T13:54:17;27.80;49.70
9544;DHT22;30418;51.45933468;7.33152330;2022-07-23T13:56:45;27.90;49.60
9544;DHT22;30418;51.45933468;7.33152330;2022-07-23T13:59:14;27.90;49.40